Tiempo atmosférico en la estación meteorológica de Barbadillo, Salamanca (817 m.)



Fecha
DESCASC
Temp. máxima en grados centígrados (hora)
DESCASC
Temp. mínima en grados centígrados (hora)
DESCASC
Temp. media en grados centígrados
DESCASC
Racha de viento máxima en m/sg (hora)
DESCASC
Velocidad máxima media en intervalos de 10 minutos(hora)
DESCASC
Precipitaciones diarias en mm
DESCASC
Precipitaciones de 00:00 a 06:00 en mm
DESCASC
Precipitaciones de 06:00 a 12:00 en mm
DESCASC
Precipitaciones de 12:00 a 18:00 en mm
DESCASC
Precipitaciones de 18:00 a 24:00 en mm
DESCASC
22-01-2020 8.6 (16:10) 2.1 (08:50) 5.4 11.94 (00:30) 8.33 (15:10) 0 0 0 0 0
21-01-2020 4.5 (16:40) -2.9 (08:20) 0.8 14.44 (17:10) 9.72 (17:00) 0 0 0 0 0
20-01-2020 3.9 (16:20) -1.4 (08:10) 1.3 19.17 (21:50) 11.11 (10:50) 0 0 0 0 0
19-01-2020 7.1 (14:20) 0.3 (00:00) 3.7 21.67 (14:10) 12.22 (14:10) 0 0 0 0 0
18-01-2020 13 (14:30) 4.2 (00:00) 8.6 16.67 (16:40) 10.56 (16:10) 3.8 1.8 1.6 0 0.4
17-01-2020 9.8 (16:40) 4 (00:00) 6.9 10.56 (13:50) 6.11 (13:50) 0.4 0 0.2 0.2 0
16-01-2020 11.2 (13:40) 7.5 (00:00) 9.3 13.89 (14:50) 8.89 (14:50) 0.6 0 0 0 0.6
15-01-2020 11.1 (15:30) 5.3 (00:00) 8.2 13.89 (01:50) 9.44 (01:20) 1.6 0 1.6 0 0
14-01-2020 7.9 (15:30) -3.9 (-00:0) 2 16.67 (22:50) 8.89 (22:50) 0 0 0 0 0
13-01-2020 10.2 (16:20) -5.8 (-00:0) 2.2 5 (16:40) 3.61 (19:40) 0 0 0 0 0
12-01-2020 7.9 (16:20) -7.3 (07:40) 0.3 3.89 (16:50) 3.33 (16:50) 0 0 0 0 0
11-01-2020 5.5 (16:30) -5.6 (-00:0) 0 5 (16:50) 3.33 (11:40) 0 0 0 0 0
10-01-2020 7.6 (15:50) -4.1 (-00:0) 1.8 7.78 (13:00) 5.56 (13:10) 0 0 0 0 0
09-01-2020 13.1 (15:50) -2.5 (-00:0) 5.3 10.83 (19:10) 5.83 (19:10) 0 0 0 0 0
08-01-2020 9.7 (16:50) -5.7 (-00:0) 2 4.72 (13:50) 3.06 (13:40) 0 0 0 0 0
07-01-2020 6.8 (16:50) -3.6 (-00:0) 1.6 4.17 (14:50) 3.33 (15:00) 0 0 0 0 0
06-01-2020 8.6 (16:00) -4.1 (-00:0) 2.3 4.17 (15:00) 2.78 (16:10) 0 0 0 0 0
05-01-2020 2.2 (15:50) -1 (-00:0) 0.6 5.56 (05:50) 3.06 (13:00) 0 0 0 0 0
04-01-2020 5.4 (12:50) 0.5 (00:00) 3 8.61 (14:40) 6.11 (14:40) 0 0 0 0 0
03-01-2020 9.2 (16:10) -0.9 (-00:0) 4.1 4.17 (12:30) 2.78 (12:20) 0 0 0 0 0
02-01-2020 13.3 (15:50) -3.8 (-00:0) 4.8 4.72 (14:20) 3.33 (14:10) 0 0 0 0 0
01-01-2020 14.8 (15:50) -5 (-00:0) 4.9 3.06 (18:50) 2.22 (18:50) 0 0 0 0 0
31-12-2019 13.7 (15:40) -4.6 (-00:0) 4.5 2.78 (11:20) 1.94 (05:50) 0 0 0 0 0
30-12-2019 -- (--) -- (--) -- -- (--) -- (--) -- 0 0 0 --
29-12-2019 12.8 (15:50) -3.4 (-00:0) 4.7 4.72 (14:10) 3.33 (14:10) 0 0 0 0 0
28-12-2019 6.8 (15:50) -2.1 (-00:0) 2.4 6.39 (05:00) 4.72 (05:00) 0 0 0 0 0
27-12-2019 2.9 (16:00) -1.3 (-00:0) 0.8 6.39 (11:50) 4.17 (12:10) 0 0 0 0 0
26-12-2019 10.2 (15:20) -0.2 (00:00) 5 6.39 (14:30) 4.17 (17:00) 0 0 0 0 0
25-12-2019 13.8 (15:40) 2.1 (00:00) 8 3.33 (23:59) 2.5 (12:00) 0 0 0 0 0

Gráficas

Temp. máximas Temp. mínimas Temp. medias Precipitaciones Rachas de viento máximas Velocidades máximas media en intervalos de 10 minutos

Datos horarios

Fecha y hora oficial Temperatura (ºC) Velocidad del viento (km/h) Dirección del viento Racha (km/h) Dirección de racha Precipitación (mm) Presión (hPa) Tendencia (hPa) Humedad (%)
2020-01-23 23:00:00 3.1 0 Calma 6 Sur 0 -- -- 89
2020-01-23 22:00:00 3.9 5 Sur 6 Sur 0 -- -- 89
2020-01-23 21:00:00 4.6 3 Norte 9 Nordeste 0 -- -- 86
2020-01-23 20:00:00 5.7 4 Sur 13 Sur 0 -- -- 81
2020-01-23 19:00:00 6.3 0 Calma 7 Nordeste 0 -- -- 78
2020-01-23 18:00:00 7.4 4 Nordeste 14 Sudeste 0 -- -- 75
2020-01-23 17:00:00 8.7 9 Este 19 Sudeste 0 -- -- 68
2020-01-23 16:00:00 8.4 9 Este 20 Sudeste 0 -- -- 72
2020-01-23 15:00:00 8 11 Sudeste 19 Este 0 -- -- 73
2020-01-23 14:00:00 6.7 8 Este 14 Este 0 -- -- 83
2020-01-23 13:00:00 5.7 10 Este 27 Este 0 -- -- 86
2020-01-23 12:00:00 4.6 17 Este 26 Este 0 -- -- 87
2020-01-23 11:00:00 3.9 10 Nordeste 18 Nordeste 0 -- -- 87
2020-01-23 10:00:00 2.8 3 Norte 10 Noroeste 0 -- -- 91
2020-01-23 09:00:00 2.4 4 Nordeste 6 Nordeste 0 -- -- 92
2020-01-23 08:00:00 2.1 4 Noroeste 9 Este 0 -- -- 92
2020-01-23 07:00:00 2.6 9 Este 17 Este 0 -- -- 92
2020-01-23 06:00:00 2.6 10 Este 19 Este 0 -- -- 92
2020-01-23 05:00:00 3.4 13 Este 22 Este 0 -- -- 91
2020-01-23 04:00:00 3.6 13 Este 22 Nordeste 0 -- -- 92
2020-01-23 03:00:00 3.2 5 Nordeste 19 Este 0 -- -- 92
2020-01-23 02:00:00 3.6 15 Este 21 Este 0 -- -- 91
2020-01-23 01:00:00 3.1 2 Norte 14 Este 0 -- -- 90
2020-01-23 00:00:00 3.6 13 Este 21 Este 0 -- -- 89
2020-01-22 23:00:00 2.7 8 Este 14 Este 0 -- -- 90
2020-01-22 22:00:00 3.5 12 Este 16 Este 0 -- -- 87
2020-01-22 21:00:00 4.4 12 Este 15 Este 0 -- -- 85
2020-01-22 20:00:00 3.6 12 Este 19 Este 0 -- -- 86
2020-01-22 19:00:00 4.6 14 Este 17 Nordeste 0 -- -- 81
2020-01-22 18:00:00 6.7 12 Este 34 Este 0 -- -- 75
2020-01-22 17:00:00 8.1 23 Este 33 Este 0 -- -- 69
2020-01-22 16:00:00 8.5 24 Este 41 Este 0 -- -- 72
2020-01-22 15:00:00 8.1 26 Este 38 Este 0 -- -- 74
2020-01-22 14:00:00 6.9 22 Este 31 Este 0 -- -- 80
2020-01-22 13:00:00 5.9 22 Este 33 Este 0 -- -- 83
2020-01-22 12:00:00 3.9 18 Este 34 Este 0 -- -- 91
2020-01-22 11:00:00 2.7 19 Nordeste 28 Nordeste 0 -- -- 91
2020-01-22 10:00:00 2.5 23 Nordeste 35 Nordeste 0 -- -- 93
2020-01-22 09:00:00 2.1 21 Nordeste 32 Este 0 -- -- 94
2020-01-22 08:00:00 2.6 18 Este 37 Nordeste 0 -- -- 92
2020-01-22 07:00:00 2.8 23 Nordeste 39 Nordeste 0 -- -- 92
2020-01-22 06:00:00 2.6 20 Nordeste 40 Nordeste 0 -- -- 94
2020-01-22 05:00:00 2.5 19 Este 35 Nordeste 0 -- -- 93
2020-01-22 04:00:00 2.7 23 Nordeste 40 Nordeste 0 -- -- 89
2020-01-22 03:00:00 2.8 27 Nordeste 40 Nordeste 0 -- -- 88
2020-01-22 02:00:00 2.8 24 Nordeste 42 Nordeste 0 -- -- 88
2020-01-22 01:00:00 2.8 29 Nordeste 43 Este 0 -- -- 88
2020-01-22 00:00:00 2.5 23 Este 40 Este 0 -- -- 89
2020-01-21 23:00:00 2.7 24 Nordeste 42 Nordeste 0 -- -- 88
2020-01-21 22:00:00 2.5 27 Nordeste 47 Nordeste 0 -- -- 88
2020-01-21 21:00:00 2.3 22 Nordeste 42 Nordeste 0 -- -- 88
2020-01-21 20:00:00 2.5 24 Nordeste 51 Nordeste 0 -- -- 89
2020-01-21 19:00:00 3.3 25 Nordeste 47 Nordeste 0 -- -- 84
2020-01-21 18:00:00 3.9 31 Nordeste 52 Nordeste 0 -- -- 81
2020-01-21 17:00:00 4.5 35 Nordeste 51 Nordeste 0 -- -- 79
2020-01-21 16:00:00 4.4 21 Nordeste 47 Nordeste 0 -- -- 79
2020-01-21 15:00:00 4.2 24 Nordeste 47 Nordeste 0 -- -- 80
2020-01-21 14:00:00 3.8 31 Nordeste 45 Este 0 -- -- 81
2020-01-21 13:00:00 2.8 24 Nordeste 41 Nordeste 0 -- -- 82
2020-01-21 12:00:00 1.7 24 Nordeste 41 Nordeste 0 -- -- 83
2020-01-21 11:00:00 0.8 22 Nordeste 32 Nordeste 0 -- -- 85
2020-01-21 10:00:00 -0.8 13 Este 27 Este 0 -- -- 88
2020-01-21 09:00:00 -2 13 Nordeste 21 Nordeste 0 -- -- 90
2020-01-21 08:00:00 -2.5 8 Nordeste 17 Nordeste 0 -- -- 90
2020-01-21 07:00:00 -2.5 10 Nordeste 17 Este 0 -- -- 92
2020-01-21 06:00:00 -2.6 12 Nordeste 17 Este 0 -- -- 92
2020-01-21 05:00:00 -1.7 13 Este 22 Este 0 -- -- 91
2020-01-21 04:00:00 -1.5 11 Este 22 Este 0 -- -- 89
2020-01-21 03:00:00 -1.6 13 Este 36 Este 0 -- -- 88
2020-01-21 02:00:00 -0.9 25 Nordeste 36 Este 0 -- -- 90
2020-01-21 01:00:00 -1.2 24 Nordeste 50 Nordeste 0 -- -- 92
2020-01-21 00:00:00 -1 31 Nordeste 52 Nordeste 0 -- -- 91
2020-01-20 23:00:00 -0.9 33 Nordeste 59 Nordeste 0 -- -- 89
2020-01-20 22:00:00 -0.3 28 Nordeste 69 Nordeste 0 -- -- 81
2020-01-20 21:00:00 0.4 26 Nordeste 40 Nordeste 0 -- -- 72
2020-01-20 20:00:00 1 28 Nordeste 54 Nordeste 0 -- -- 69
2020-01-20 19:00:00 1.3 32 Nordeste 48 Nordeste 0 -- -- 67
2020-01-20 18:00:00 2 27 Nordeste 45 Nordeste 0 -- -- 64
2020-01-20 17:00:00 2.5 33 Nordeste 50 Nordeste 0 -- -- 59
2020-01-20 16:00:00 3.6 37 Nordeste 55 Nordeste 0 -- -- 57
2020-01-20 15:00:00 3.6 35 Nordeste 51 Nordeste 0 -- -- 56
2020-01-20 14:00:00 2.6 32 Nordeste 48 Nordeste 0 -- -- 61
2020-01-20 13:00:00 1.2 36 Nordeste 58 Nordeste 0 -- -- 62
2020-01-20 12:00:00 0.9 34 Nordeste 60 Nordeste 0 -- -- 64
2020-01-20 11:00:00 -0.1 35 Nordeste 60 Nordeste 0 -- -- 69
2020-01-20 10:00:00 -0.3 32 Nordeste 51 Nordeste 0 -- -- 69
2020-01-20 09:00:00 -1.3 25 Nordeste 61 Nordeste 0 -- -- 72
2020-01-20 08:00:00 -1.3 26 Nordeste 47 Nordeste 0 -- -- 73
2020-01-20 07:00:00 -1.1 26 Nordeste 42 Nordeste 0 -- -- 73
2020-01-20 06:00:00 -1 22 Nordeste 46 Nordeste 0 -- -- 74
2020-01-20 05:00:00 -0.7 30 Nordeste 49 Nordeste 0 -- -- 72
2020-01-20 04:00:00 -0.6 24 Nordeste 48 Nordeste 0 -- -- 70
2020-01-20 03:00:00 -0.2 26 Nordeste 50 Nordeste 0 -- -- 68
2020-01-20 02:00:00 0 22 Nordeste 44 Nordeste 0 -- -- 69
2020-01-20 01:00:00 0.4 27 Nordeste 48 Nordeste 0 -- -- 70
2020-01-20 00:00:00 0.4 21 Nordeste 46 Nordeste 0 -- -- 71
2020-01-19 23:00:00 0.3 19 Nordeste 41 Nordeste 0 -- -- 70
2020-01-19 22:00:00 0.8 23 Nordeste 45 Nordeste 0 -- -- 67
2020-01-19 21:00:00 1 25 Nordeste 59 Nordeste 0 -- -- 67
2020-01-19 20:00:00 1.6 26 Nordeste 49 Nordeste 0 -- -- 62
2020-01-19 19:00:00 2.5 27 Nordeste 49 Nordeste 0 -- -- 61
2020-01-19 18:00:00 4 25 Nordeste 74 Nordeste 0 -- -- 59
2020-01-19 17:00:00 5.9 29 Nordeste 65 Nordeste 0 -- -- 52
2020-01-19 16:00:00 6.7 32 Nordeste 68 Nordeste 0 -- -- 52
2020-01-19 15:00:00 6.9 41 Nordeste 78 Nordeste 0 -- -- 52
2020-01-19 14:00:00 7 39 Nordeste 69 Nordeste 0 -- -- 48
2020-01-19 13:00:00 6.5 37 Nordeste 69 Nordeste 0 -- -- 55
2020-01-19 12:00:00 6.1 29 Nordeste 53 Nordeste 0 -- -- 70
2020-01-19 11:00:00 4.4 21 Nordeste 30 Nordeste 0 -- -- 86
2020-01-19 10:00:00 2.8 9 Nordeste 26 Nordeste 0 -- -- 92
2020-01-19 09:00:00 2.4 11 Nordeste 21 Norte 0 -- -- 97
2020-01-19 08:00:00 0.7 0 Calma 4 Sur 0 -- -- 97
2020-01-19 07:00:00 1.2 4 Sur 6 Oeste 0 -- -- 96
2020-01-19 06:00:00 2.2 0 Calma 14 Norte 0 -- -- 94
2020-01-19 05:00:00 3.4 7 Noroeste 21 Noroeste 0 -- -- 94
2020-01-19 04:00:00 4.6 12 Noroeste 21 Noroeste 0 -- -- 93
2020-01-19 03:00:00 4.9 10 Noroeste 19 Noroeste 0 -- -- 93
2020-01-19 02:00:00 5.1 11 Noroeste 22 Oeste 0 -- -- 94
2020-01-19 01:00:00 5 10 Oeste 22 Sudoeste 0 -- -- 93
2020-01-19 00:00:00 5 12 Oeste 24 Oeste 0 -- -- 91
2020-01-18 23:00:00 5 13 Oeste 26 Oeste 0 -- -- 90
2020-01-18 22:00:00 5.2 17 Oeste 26 Oeste 0 -- -- 89
2020-01-18 21:00:00 6.6 15 Oeste 47 Oeste 0.4 -- -- 89
2020-01-18 20:00:00 8.7 24 Oeste 38 Oeste 0 -- -- 78
2020-01-18 19:00:00 9.8 28 Oeste 52 Sudoeste 0 -- -- 77
2020-01-18 18:00:00 10.6 27 Sudoeste 54 Sudoeste 0 -- -- 76
2020-01-18 17:00:00 11.8 33 Sudoeste 60 Sudoeste 0 -- -- 72
2020-01-18 16:00:00 12.7 34 Sudoeste 57 Sudoeste 0 -- -- 71
2020-01-18 15:00:00 12.6 30 Sudoeste 54 Sudoeste 0 -- -- 74
2020-01-18 14:00:00 12.2 27 Sudoeste 47 Sudoeste 0 -- -- 74
2020-01-18 13:00:00 11.7 27 Sudoeste 44 Sur 0 -- -- 78
2020-01-18 12:00:00 10.3 27 Sudoeste 45 Sudoeste 0 -- -- 83
2020-01-18 11:00:00 8.8 23 Sudoeste 48 Sudoeste 0 -- -- 86
2020-01-18 10:00:00 7.7 24 Sudoeste 37 Sur 0 -- -- 89
2020-01-18 09:00:00 7.1 18 Sudoeste 30 Sur 0 -- -- 91
2020-01-18 08:00:00 6.8 13 Sur 28 Sur 0.4 -- -- 90
2020-01-18 07:00:00 6.1 13 Sur 24 Sudoeste 1.2 -- -- 93
2020-01-18 06:00:00 5.8 16 Sur 24 Sur 1 -- -- 96
2020-01-18 05:00:00 4.9 10 Sur 15 Sudeste 0.8 -- -- 95
2020-01-18 04:00:00 4.6 3 Este 6 Sur 0 -- -- 94
2020-01-18 03:00:00 4.5 5 Nordeste 7 Norte 0 -- -- 93
2020-01-18 02:00:00 4.8 4 Oeste 9 Sudoeste 0 -- -- 92
2020-01-18 01:00:00 4.6 6 Sur 10 Sur 0 -- -- 90
2020-01-18 00:00:00 4.3 3 Este 10 Sur 0 -- -- 89
2020-01-17 23:00:00 4.3 0 Calma 10 Sudoeste 0 -- -- 89
2020-01-17 22:00:00 4.1 6 Sudoeste 12 Oeste 0 -- -- 90
2020-01-17 21:00:00 4.4 5 Sudoeste 9 Sudeste 0 -- -- 87
2020-01-17 20:00:00 5.2 4 Sur 6 Sur 0 -- -- 86
2020-01-17 19:00:00 6.5 0 Calma 4 Este 0 -- -- 81
2020-01-17 18:00:00 8.1 2 Oeste 13 Sudoeste 0 -- -- 68
2020-01-17 17:00:00 9.5 10 Oeste 27 Oeste 0 -- -- 63
2020-01-17 16:00:00 9.3 15 Oeste 24 Sudoeste 0 -- -- 64
2020-01-17 15:00:00 9.5 14 Oeste 26 Oeste 0 -- -- 64
2020-01-17 14:00:00 9.5 16 Oeste 38 Sudoeste 0.2 -- -- 65
2020-01-17 13:00:00 8.3 15 Oeste 32 Oeste 0 -- -- 74
2020-01-17 12:00:00 8.1 17 Oeste 30 Oeste 0 -- -- 79
2020-01-17 11:00:00 7.4 15 Oeste 26 Sudoeste 0 -- -- 91
2020-01-17 10:00:00 7 15 Sudoeste 29 Oeste 0 -- -- 93
2020-01-17 09:00:00 6.3 17 Oeste 31 Sudoeste 0 -- -- 94
2020-01-17 08:00:00 6.5 17 Oeste 31 Sudoeste 0.2 -- -- 92
2020-01-17 07:00:00 6.9 19 Sudoeste 34 Sudoeste 0 -- -- 86
2020-01-17 06:00:00 6.7 16 Sudoeste 28 Sudoeste 0 -- -- 85
2020-01-17 05:00:00 6.2 14 Sudoeste 28 Sudoeste 0 -- -- 85
2020-01-17 04:00:00 6 18 Sudoeste 29 Sudoeste 0 -- -- 87
2020-01-17 03:00:00 6 15 Sur 26 Sur 0 -- -- 87
2020-01-17 02:00:00 5.4 14 Sudoeste 21 Sudoeste 0 -- -- 94
2020-01-17 01:00:00 6.5 7 Sudoeste 16 Sudoeste 0 -- -- 91
2020-01-17 00:00:00 7.5 12 Sudoeste 25 Sudoeste 0.2 -- -- 92
2020-01-16 23:00:00 8.1 17 Sudoeste 43 Sudoeste 0 -- -- 86
2020-01-16 22:00:00 8.2 21 Sudoeste 43 Sudoeste 0.2 -- -- 83
2020-01-16 21:00:00 8.5 22 Sudoeste 46 Sudoeste 0 -- -- 79
2020-01-16 20:00:00 8.9 22 Sudoeste 47 Sudoeste 0.2 -- -- 74
2020-01-16 19:00:00 9.1 26 Sudoeste 44 Sudoeste 0 -- -- 69
2020-01-16 18:00:00 9.6 17 Sudoeste 41 Sudoeste 0 -- -- 67
2020-01-16 17:00:00 10.2 16 Sur 33 Sur 0 -- -- 70
2020-01-16 16:00:00 9.9 20 Sur 44 Sudoeste 0 -- -- 70
2020-01-16 15:00:00 10.5 32 Sudoeste 50 Sudoeste 0 -- -- 63
2020-01-16 14:00:00 11 29 Sudoeste 49 Sudoeste 0 -- -- 60
2020-01-16 13:00:00 10.3 26 Sudoeste 45 Sudoeste 0 -- -- 69
2020-01-16 12:00:00 9.9 21 Sudoeste 38 Sur 0 -- -- 73
2020-01-16 11:00:00 9.7 21 Sur 30 Sur 0 -- -- 77
2020-01-16 10:00:00 9.1 24 Sudoeste 38 Sur 0 -- -- 84
2020-01-16 09:00:00 9 29 Sur 40 Sudoeste 0 -- -- 89
2020-01-16 08:00:00 9 13 Sudoeste 24 Sur 0 -- -- 91
2020-01-16 07:00:00 8.9 18 Sur 31 Sur 0 -- -- 89
2020-01-16 06:00:00 8.9 12 Sudoeste 23 Sur 0 -- -- 92
2020-01-16 05:00:00 8.6 14 Sur 26 Sudoeste 0 -- -- 92
2020-01-16 04:00:00 8.6 18 Sur 35 Sur 0 -- -- 90
2020-01-16 03:00:00 8.8 18 Sur 39 Sur 0 -- -- 89
2020-01-16 02:00:00 8.7 22 Sur 33 Sur 0 -- -- 91
2020-01-16 01:00:00 8.6 19 Sudoeste 36 Sur 0 -- -- 90
2020-01-16 00:00:00 8.7 18 Sudoeste 32 Sur 0 -- -- 90
2020-01-15 23:00:00 9.1 13 Sur 25 Sudoeste 0 -- -- 89
2020-01-15 22:00:00 9.2 17 Sur 27 Sudoeste 0 -- -- 90
2020-01-15 21:00:00 8.8 14 Sur 30 Sur 0 -- -- 91
2020-01-15 20:00:00 8.6 17 Sur 27 Sur 0 -- -- 92
2020-01-15 19:00:00 8.8 19 Sur 31 Sur 0 -- -- 89
2020-01-15 18:00:00 9.2 15 Sur 32 Sudoeste 0 -- -- 87
2020-01-15 17:00:00 9.4 21 Sur 31 Sur 0 -- -- 87
2020-01-15 16:00:00 11 23 Sudoeste 37 Sudoeste 0 -- -- 77
2020-01-15 15:00:00 10.4 30 Sudoeste 45 Sudoeste 0 -- -- 82
2020-01-15 14:00:00 10.2 30 Sudoeste 41 Sudoeste 0 -- -- 82
2020-01-15 13:00:00 7 6 Este 10 Sudeste 0 -- -- 95
2020-01-15 12:00:00 5.3 5 Noroeste 32 Sudoeste 1.4 -- -- 94
2020-01-15 11:00:00 7.7 25 Sudoeste 45 Sur 0.2 -- -- 89
2020-01-15 10:00:00 7.5 25 Sur 40 Sur 0 -- -- 86
2020-01-15 09:00:00 7.2 23 Sur 42 Sudoeste 0 -- -- 85
2020-01-15 08:00:00 7.4 29 Sudoeste 47 Sudoeste 0 -- -- 82
2020-01-15 07:00:00 7 25 Sur 39 Sur 0 -- -- 82
2020-01-15 06:00:00 7 26 Sur 42 Sur 0 -- -- 84
2020-01-15 05:00:00 6.9 19 Sur 44 Sur 0 -- -- 84
2020-01-15 04:00:00 7.3 28 Sudoeste 46 Sudoeste 0 -- -- 80
2020-01-15 03:00:00 7 26 Sudoeste 44 Sur 0 -- -- 84
2020-01-15 02:00:00 7.4 30 Sudoeste 50 Sudoeste 0 -- -- 83
2020-01-15 01:00:00 7.2 26 Sur 40 Sur 0 -- -- 84
2020-01-15 00:00:00 7.2 19 Sudoeste 48 Sudoeste 0 -- -- 85
2020-01-14 23:00:00 7 30 Sur 60 Sudoeste 0 -- -- 86
2020-01-14 22:00:00 6.6 31 Sur 44 Sudoeste 0 -- -- 89
2020-01-14 21:00:00 6 25 Sur 38 Sur 0 -- -- 86
2020-01-14 20:00:00 6.1 24 Sur 37 Sudoeste 0 -- -- 84
2020-01-14 19:00:00 6.1 16 Sudoeste 29 Sur 0 -- -- 85
2020-01-14 18:00:00 6.2 19 Sur 37 Sur 0 -- -- 82
2020-01-14 17:00:00 6.9 25 Sudoeste 44 Sur 0 -- -- 79
2020-01-14 16:00:00 7.5 26 Sur 39 Sur 0 -- -- 76
2020-01-14 15:00:00 6.8 22 Sur 33 Sudoeste 0 -- -- 78
2020-01-14 14:00:00 7.5 19 Sudoeste 28 Sur 0 -- -- 76
2020-01-14 13:00:00 7 13 Sur 30 Sur 0 -- -- 77
2020-01-14 12:00:00 6.6 13 Sur 26 Sur 0 -- -- 77
2020-01-14 11:00:00 5.5 12 Sur 25 Sur 0 -- -- 81
2020-01-14 10:00:00 3.6 10 Sur 16 Sur 0 -- -- 87
2020-01-14 09:00:00 1.9 10 Sur 19 Sur 0 -- -- 90
2020-01-14 08:00:00 1.6 10 Sur 15 Sur 0 -- -- 91
2020-01-14 07:00:00 1.1 12 Sur 19 Sur 0 -- -- 93
2020-01-14 06:00:00 -1.7 6 Sur 14 Sudoeste 0 -- -- 96
2020-01-14 05:00:00 -3.7 3 Sur 6 Sur 0 -- -- 93
2020-01-14 04:00:00 -3.8 3 Este 6 Sudeste 0 -- -- 92
2020-01-14 03:00:00 -3.3 2 Este 4 Nordeste 0 -- -- 89
2020-01-14 02:00:00 -1.8 3 Sur 12 Sur 0 -- -- 91
2020-01-14 01:00:00 -1.9 5 Sur 11 Sur 0 -- -- 89
2020-01-14 00:00:00 -1 6 Sur 13 Sur 0 -- -- 86
2020-01-13 23:00:00 -1.3 5 Sur 11 Noroeste 0 -- -- 84
2020-01-13 22:00:00 -0.7 6 Sudoeste 9 Oeste 0 -- -- 79
2020-01-13 21:00:00 1.1 6 Oeste 14 Sur 0 -- -- 69
2020-01-13 20:00:00 2.7 9 Sur 18 Sur 0 -- -- 67
2020-01-13 19:00:00 4.3 10 Sudoeste 15 Sur 0 -- -- 68
2020-01-13 18:00:00 7.8 10 Sudoeste 17 Sur 0 -- -- 56
2020-01-13 17:00:00 9.8 8 Sur 18 Sur 0 -- -- 51
2020-01-13 16:00:00 10 9 Sudoeste 17 Sudoeste 0 -- -- 52
2020-01-13 15:00:00 9.7 7 Sudoeste 17 Sudoeste 0 -- -- 57
2020-01-13 14:00:00 7.6 7 Oeste 18 Oeste 0 -- -- 67
2020-01-13 13:00:00 5.6 7 Sudoeste 13 Sudoeste 0 -- -- 78
2020-01-13 12:00:00 0.8 3 Sur 10 Norte 0 -- -- 95
2020-01-13 11:00:00 -2.1 6 Noroeste 12 Norte 0 -- -- 96
2020-01-13 10:00:00 -4.4 0 Calma 5 Sur 0 -- -- 96
2020-01-13 09:00:00 -5.6 2 Sur 4 Noroeste 0 -- -- 95
2020-01-13 08:00:00 -5.3 2 Noroeste 5 Noroeste 0 -- -- 95
2020-01-13 07:00:00 -5.5 3 Sudeste 5 Este 0 -- -- 97
2020-01-13 06:00:00 -5.8 0 Calma 4 Sudeste 0 -- -- 96
2020-01-13 05:00:00 -5.7 0 Calma 6 Norte 0 -- -- 96
2020-01-13 04:00:00 -5.1 0 Calma 6 Sudeste 0 -- -- 96
2020-01-13 03:00:00 -4.5 3 Este 9 Sudeste 0 -- -- 97
2020-01-13 02:00:00 -4.6 3 Sudeste 4 Este 0 -- -- 97
2020-01-13 01:00:00 -4.7 3 Nordeste 4 Nordeste 0 -- -- 96
2020-01-13 00:00:00 -4.3 0 Calma 5 Norte 0 -- -- 96
2020-01-12 23:00:00 -3.5 3 Norte 8 Sudeste 0 -- -- 94
2020-01-12 22:00:00 -3 6 Sudeste 9 Sudeste 0 -- -- 92
2020-01-12 21:00:00 -2.1 5 Este 9 Este 0 -- -- 90
2020-01-12 20:00:00 -0.4 0 Calma 4 Norte 0 -- -- 86
2020-01-12 19:00:00 2.2 0 Calma 6 Este 0 -- -- 83
2020-01-12 18:00:00 5 6 Este 13 Este 0 -- -- 78
2020-01-12 17:00:00 7.1 9 Este 14 Este 0 -- -- 74
2020-01-12 16:00:00 7.6 6 Nordeste 10 Este 0 -- -- 70
2020-01-12 15:00:00 6.6 6 Este 10 Norte 0 -- -- 72
2020-01-12 14:00:00 5.4 5 Nordeste 12 Este 0 -- -- 78
2020-01-12 13:00:00 3.4 4 Norte 7 Nordeste 0 -- -- 88
2020-01-12 12:00:00 0.7 5 Norte 11 Noroeste 0 -- -- 92
2020-01-12 11:00:00 -1.4 0 Calma 9 Noroeste 0 -- -- 94
2020-01-12 10:00:00 -4.8 0 Calma 4 Sur 0 -- -- 96
2020-01-12 09:00:00 -7.2 0 Calma 4 Noroeste 0 -- -- 93
2020-01-12 08:00:00 -7.3 0 Calma 4 Sudeste 0 -- -- 93
2020-01-12 07:00:00 -7.2 4 Sur 4 Sudeste 0 -- -- 93
2020-01-12 06:00:00 -6.9 0 Calma 3 Norte 0 -- -- 93
2020-01-12 05:00:00 -6.3 0 Calma 4 Norte 0 -- -- 94
2020-01-12 04:00:00 -5.7 2 Sur 4 Sur 0 -- -- 95
2020-01-12 03:00:00 -5.4 3 Sudeste 6 Sudeste 0 -- -- 96
2020-01-12 02:00:00 -4.7 2 Norte 4 Sudeste 0 -- -- 97
2020-01-12 01:00:00 -4.1 3 Sudeste 5 Sudeste 0 -- -- 97
2020-01-12 00:00:00 -3.4 0 Calma 4 Este 0 -- -- 97
2020-01-11 23:00:00 -2.8 3 Sudeste 5 Este 0 -- -- 97
2020-01-11 22:00:00 -2.2 2 Este 9 Este 0 -- -- 97
2020-01-11 21:00:00 -1.5 4 Sudeste 12 Este 0 -- -- 96
2020-01-11 20:00:00 -0.1 7 Este 12 Nordeste 0 -- -- 92
2020-01-11 19:00:00 1.9 2 Nordeste 5 Nordeste 0 -- -- 85
2020-01-11 18:00:00 4.2 5 Nordeste 14 Este 0 -- -- 83
2020-01-11 17:00:00 5.4 8 Este 18 Este 0 -- -- 75
2020-01-11 16:00:00 4.7 7 Este 17 Este 0 -- -- 84
2020-01-11 15:00:00 3.1 9 Este 17 Este 0 -- -- 93
2020-01-11 14:00:00 1.5 9 Este 17 Este 0 -- -- 98
2020-01-11 13:00:00 0.8 7 Este 13 Nordeste 0 -- -- 99
2020-01-11 12:00:00 0.2 9 Nordeste 17 Nordeste 0 -- -- 99
2020-01-11 11:00:00 -0.1 12 Este 17 Este 0 -- -- 98
2020-01-11 10:00:00 -2.1 3 Este 10 Este 0 -- -- 99
2020-01-11 09:00:00 -4.4 2 Norte 6 Sur 0 -- -- 95
2020-01-11 08:00:00 -5.5 0 Calma 3 Oeste 0 -- -- 92
2020-01-11 07:00:00 -4.6 0 Calma 6 Sudeste 0 -- -- 94
2020-01-11 06:00:00 -4.2 3 Sudeste 6 Sur 0 -- -- 95
2020-01-11 05:00:00 -3.7 3 Sur 8 Sur 0 -- -- 95
2020-01-11 04:00:00 -3.7 0 Calma 6 Sur 0 -- -- 95
2020-01-11 03:00:00 -3.7 2 Sur 11 Sur 0 -- -- 94
2020-01-11 02:00:00 -3.8 3 Sur 7 Sur 0 -- -- 93
2020-01-11 01:00:00 -3.1 0 Calma 8 Sur 0 -- -- 93
2020-01-11 00:00:00 -3.2 2 Sur 6 Sur 0 -- -- 92
2020-01-10 23:00:00 -2.8 4 Sur 8 Sur 0 -- -- 92
2020-01-10 22:00:00 -2.4 0 Calma 6 Sur 0 -- -- 90
2020-01-10 21:00:00 -1.3 0 Calma 9 Sur 0 -- -- 88
2020-01-10 20:00:00 0.6 2 Nordeste 8 Sur 0 -- -- 88
2020-01-10 19:00:00 2.8 3 Nordeste 13 Este 0 -- -- 82
2020-01-10 18:00:00 5.3 10 Nordeste 26 Este 0 -- -- 75
2020-01-10 17:00:00 6.8 19 Este 26 Este 0 -- -- 70
2020-01-10 16:00:00 7.5 16 Nordeste 26 Nordeste 0 -- -- 65
2020-01-10 15:00:00 7.2 15 Nordeste 27 Nordeste 0 -- -- 66
2020-01-10 14:00:00 6.6 19 Nordeste 28 Nordeste 0 -- -- 67
2020-01-10 13:00:00 5.8 19 Nordeste 28 Nordeste 0 -- -- 75
2020-01-10 12:00:00 4.5 13 Nordeste 23 Nordeste 0 -- -- 80
2020-01-10 11:00:00 2 6 Este 9 Este 0 -- -- 96
2020-01-10 10:00:00 -2.5 3 Sur 6 Sudeste 0 -- -- 97
2020-01-10 09:00:00 -4 3 Sur 8 Sur 0 -- -- 95
2020-01-10 08:00:00 -3.9 4 Sur 5 Sur 0 -- -- 94
2020-01-10 07:00:00 -3.3 4 Sur 6 Sudoeste 0 -- -- 94
2020-01-10 06:00:00 -2.6 3 Sur 7 Sur 0 -- -- 95
2020-01-10 05:00:00 -2.1 3 Sur 6 Sur 0 -- -- 94
2020-01-10 04:00:00 -1.5 4 Sur 6 Sur 0 -- -- 92
2020-01-10 03:00:00 -0.1 0 Calma 8 Sudeste 0 -- -- 91
2020-01-10 02:00:00 1.6 5 Sur 11 Oeste 0 -- -- 88
2020-01-10 01:00:00 3.8 8 Oeste 15 Noroeste 0 -- -- 86
2020-01-10 00:00:00 5.6 9 Noroeste 20 Oeste 0 -- -- 87
2020-01-09 23:00:00 5.5 11 Oeste 18 Sudoeste 0 -- -- 95
2020-01-09 22:00:00 5.1 8 Oeste 14 Sudoeste 0 -- -- 91
2020-01-09 21:00:00 6.9 6 Sudoeste 17 Oeste 0 -- -- 85
2020-01-09 20:00:00 8.4 12 Oeste 39 Noroeste 0 -- -- 84
2020-01-09 19:00:00 10.2 14 Oeste 27 Oeste 0 -- -- 86
2020-01-09 18:00:00 10.4 12 Sudoeste 28 Oeste 0 -- -- 87
2020-01-09 17:00:00 10.6 15 Sudoeste 31 Oeste 0 -- -- 86
2020-01-09 16:00:00 12.6 19 Oeste 28 Oeste 0 -- -- 76
2020-01-09 15:00:00 12 18 Sudoeste 31 Sudoeste 0 -- -- 81
2020-01-09 14:00:00 10.1 13 Sudoeste 23 Sudoeste 0 -- -- 90
2020-01-09 13:00:00 8.5 14 Oeste 26 Oeste 0 -- -- 93
2020-01-09 12:00:00 8.1 12 Sudoeste 21 Sudoeste 0 -- -- 95
2020-01-09 11:00:00 4.6 4 Sudoeste 9 Sudoeste 0 -- -- 96
2020-01-09 10:00:00 0.4 0 Calma 9 Sur 0 -- -- 98
2020-01-09 09:00:00 -1.8 7 Sur 8 Sur 0 -- -- 97
2020-01-09 08:00:00 -2.4 2 Sur 9 Sudeste 0 -- -- 95
2020-01-09 07:00:00 -2.5 4 Este 6 Noroeste 0 -- -- 95
2020-01-09 06:00:00 -2.4 5 Sudeste 6 Sudeste 0 -- -- 95
2020-01-09 05:00:00 -2.1 4 Sur 6 Sudeste 0 -- -- 95
2020-01-09 04:00:00 -1.9 0 Calma 4 Sudeste 0 -- -- 95
2020-01-09 03:00:00 -1.7 3 Sudeste 6 Sudeste 0 -- -- 95
2020-01-09 02:00:00 -1.3 5 Sur 9 Sur 0 -- -- 95
2020-01-09 01:00:00 -1.2 2 Sur 5 Sur 0 -- -- 94
2020-01-09 00:00:00 -0.6 2 Sur 7 Sudeste 0 -- -- 94
2020-01-08 23:00:00 -0.2 4 Sur 6 Sur 0 -- -- 93
2020-01-08 22:00:00 0.3 5 Sur 8 Sudeste 0 -- -- 92
2020-01-08 21:00:00 1.1 5 Sur 8 Sur 0 -- -- 90
2020-01-08 20:00:00 2.8 0 Calma 6 Sur 0 -- -- 84
2020-01-08 19:00:00 5.2 5 Sur 6 Sur 0 -- -- 78
2020-01-08 18:00:00 9.1 3 Nordeste 8 Norte 0 -- -- 64
2020-01-08 17:00:00 9.7 5 Norte 12 Noroeste 0 -- -- 57
2020-01-08 16:00:00 8.3 5 Noroeste 11 Norte 0 -- -- 72
2020-01-08 15:00:00 6.8 6 Norte 12 Este 0 -- -- 79
2020-01-08 14:00:00 5 8 Este 17 Este 0 -- -- 80
2020-01-08 13:00:00 1.9 8 Este 15 Este 0 -- -- 92
2020-01-08 12:00:00 -0.3 8 Este 13 Este 0 -- -- 97
2020-01-08 11:00:00 -2.2 8 Este 15 Sudeste 0 -- -- 97
2020-01-08 10:00:00 -3.3 6 Nordeste 10 Este 0 -- -- 97
2020-01-08 09:00:00 -4.7 5 Este 8 Este 0 -- -- 96
2020-01-08 08:00:00 -5 3 Sudeste 6 Este 0 -- -- 96
2020-01-08 07:00:00 -5.5 0 Calma 2 Nordeste 0 -- -- 96
2020-01-08 06:00:00 -5.2 0 Calma 6 Noroeste 0 -- -- 96
2020-01-08 05:00:00 -4.9 5 Norte 8 Norte 0 -- -- 95
2020-01-08 04:00:00 -4.9 4 Sudeste 6 Este 0 -- -- 95
2020-01-08 03:00:00 -4.8 2 Sur 4 Sur 0 -- -- 94
2020-01-08 02:00:00 -4.3 0 Calma 5 Sudeste 0 -- -- 95
2020-01-08 01:00:00 -3.9 4 Sudeste 8 Sudeste 0 -- -- 95
2020-01-08 00:00:00 -3.6 2 Sudeste 4 Sudeste 0 -- -- 94
2020-01-07 23:00:00 -3.1 0 Calma 5 Sur 0 -- -- 94
2020-01-07 22:00:00 -2.8 3 Sur 4 Sur 0 -- -- 91
2020-01-07 21:00:00 -1.6 3 Sudoeste 8 Sur 0 -- -- 92
2020-01-07 20:00:00 -0.1 2 Sudeste 6 Sur 0 -- -- 89
2020-01-07 19:00:00 2.5 5 Sur 6 Sudeste 0 -- -- 86
2020-01-07 18:00:00 6.2 3 Sudeste 6 Este 0 -- -- 79
2020-01-07 17:00:00 6.7 4 Este 9 Este 0 -- -- 80
2020-01-07 16:00:00 6.5 7 Este 13 Este 0 -- -- 83
2020-01-07 15:00:00 4.8 12 Este 15 Este 0 -- -- 86
2020-01-07 14:00:00 3.9 3 Nordeste 10 Nordeste 0 -- -- 99
2020-01-07 13:00:00 1.1 7 Este 12 Nordeste 0 -- -- 100
2020-01-07 12:00:00 -1.3 6 Este 12 Nordeste 0 -- -- 100
2020-01-07 11:00:00 -2.2 9 Este 15 Este 0 -- -- 100
2020-01-07 10:00:00 -2.5 10 Este 14 Este 0 -- -- 99
2020-01-07 09:00:00 -2.5 9 Este 13 Nordeste 0 -- -- 99
2020-01-07 08:00:00 -2.4 10 Nordeste 15 Este 0 -- -- 99
2020-01-07 07:00:00 -2.2 9 Este 15 Este 0 -- -- 99
2020-01-07 06:00:00 -2.1 8 Este 14 Este 0 -- -- 99
2020-01-07 05:00:00 -1.9 7 Este 13 Este 0 -- -- 99
2020-01-07 04:00:00 -1.6 10 Este 14 Este 0 -- -- 98
2020-01-07 03:00:00 -2 3 Norte 6 Norte 0 -- -- 98
2020-01-07 02:00:00 -2.5 3 Nordeste 7 Nordeste 0 -- -- 98
2020-01-07 01:00:00 -2 4 Sudeste 6 Este 0 -- -- 97
2020-01-07 00:00:00 -1.3 0 Calma 6 Este 0 -- -- 97
2020-01-06 23:00:00 -0.6 5 Sudeste 9 Este 0 -- -- 97
2020-01-06 22:00:00 -1.5 6 Sur 8 Sudeste 0 -- -- 93
2020-01-06 21:00:00 -0.3 0 Calma 6 Sur 0 -- -- 91
2020-01-06 20:00:00 1.6 5 Sur 6 Sur 0 -- -- 88
2020-01-06 19:00:00 4 4 Sudeste 5 Sudeste 0 -- -- 85
2020-01-06 18:00:00 7.2 3 Oeste 8 Noroeste 0 -- -- 78
2020-01-06 17:00:00 8.3 2 Norte 15 Norte 0 -- -- 78
2020-01-06 16:00:00 8.6 7 Norte 13 Norte 0 -- -- 78
2020-01-06 15:00:00 7.8 9 Norte 15 Norte 0 -- -- 79
2020-01-06 14:00:00 6.1 3 Este 10 Noroeste 0 -- -- 91
2020-01-06 13:00:00 2.5 4 Nordeste 10 Este 0 -- -- 100
2020-01-06 12:00:00 -0.7 5 Sudeste 9 Sudeste 0 -- -- 100
2020-01-06 11:00:00 -2.4 5 Noroeste 8 Noroeste 0 -- -- 99
2020-01-06 10:00:00 -3.6 0 Calma 6 Sudeste 0 -- -- 99